sensor_id;sensor_type;location;lat;lon;timestamp;temperature;humidity
4697;DHT22;2362;50.780;0.292;2023-11-19T00:00:25;13.00;99.90
4697;DHT22;2362;50.780;0.292;2023-11-19T00:02:51;12.90;99.90
4697;DHT22;2362;50.780;0.292;2023-11-19T00:05:16;12.90;99.90
4697;DHT22;2362;50.780;0.292;2023-11-19T00:07:42;12.80;99.90
4697;DHT22;2362;50.780;0.292;2023-11-19T00:10:14;12.80;99.90
4697;DHT22;2362;50.780;0.292;2023-11-19T00:12:44;12.70;99.90
4697;DHT22;2362;50.780;0.292;2023-11-19T00:15:10;12.70;99.90
4697;DHT22;2362;50.780;0.292;2023-11-19T00:17:41;12.70;99.90
4697;DHT22;2362;50.780;0.292;2023-11-19T00:20:11;12.60;99.90
4697;DHT22;2362;50.780;0.292;2023-11-19T00:22:36;12.70;99.90
4697;DHT22;2362;50.780;0.292;2023-11-19T00:25:02;12.70;99.90
4697;DHT22;2362;50.780;0.292;2023-11-19T00:27:29;12.60;99.90
4697;DHT22;2362;50.780;0.292;2023-11-19T00:29:54;12.60;99.90
4697;DHT22;2362;50.780;0.292;2023-11-19T00:32:20;12.60;99.90
4697;DHT22;2362;50.780;0.292;2023-11-19T00:34:46;12.60;99.90
4697;DHT22;2362;50.780;0.292;2023-11-19T00:37:13;12.50;99.90
4697;DHT22;2362;50.780;0.292;2023-11-19T00:39:40;12.50;99.90
4697;DHT22;2362;50.780;0.292;2023-11-19T00:42:06;12.50;99.90
4697;DHT22;2362;50.780;0.292;2023-11-19T00:44:32;12.40;99.90
4697;DHT22;2362;50.780;0.292;2023-11-19T00:46:57;12.40;99.90
4697;DHT22;2362;50.780;0.292;2023-11-19T00:49:23;12.50;99.90
4697;DHT22;2362;50.780;0.292;2023-11-19T00:51:49;12.50;99.90
4697;DHT22;2362;50.780;0.292;2023-11-19T00:54:14;12.40;99.90
4697;DHT22;2362;50.780;0.292;2023-11-19T00:56:40;12.40;99.90
4697;DHT22;2362;50.780;0.292;2023-11-19T00:59:06;12.40;99.90
4697;DHT22;2362;50.780;0.292;2023-11-19T01:01:31;12.40;99.90
4697;DHT22;2362;50.780;0.292;2023-11-19T01:03:57;12.50;99.90
4697;DHT22;2362;50.780;0.292;2023-11-19T01:06:30;12.40;99.90
4697;DHT22;2362;50.780;0.292;2023-11-19T01:08:56;12.50;99.90
4697;DHT22;2362;50.780;0.292;2023-11-19T01:11:24;12.40;99.90
4697;DHT22;2362;50.780;0.292;2023-11-19T01:13:51;12.40;99.90
4697;DHT22;2362;50.780;0.292;2023-11-19T01:16:17;12.40;99.90
4697;DHT22;2362;50.780;0.292;2023-11-19T01:18:44;12.40;99.90
4697;DHT22;2362;50.780;0.292;2023-11-19T01:21:10;12.40;99.90
4697;DHT22;2362;50.780;0.292;2023-11-19T01:23:36;12.40;99.90
4697;DHT22;2362;50.780;0.292;2023-11-19T01:26:02;12.40;99.90
4697;DHT22;2362;50.780;0.292;2023-11-19T01:28:28;12.40;99.90
4697;DHT22;2362;50.780;0.292;2023-11-19T01:30:54;12.40;99.90
4697;DHT22;2362;50.780;0.292;2023-11-19T01:33:19;12.40;99.90
4697;DHT22;2362;50.780;0.292;2023-11-19T01:35:46;12.40;99.90
4697;DHT22;2362;50.780;0.292;2023-11-19T01:38:12;12.40;99.90
4697;DHT22;2362;50.780;0.292;2023-11-19T01:40:38;12.40;99.90
4697;DHT22;2362;50.780;0.292;2023-11-19T01:43:03;12.40;99.90
4697;DHT22;2362;50.780;0.292;2023-11-19T01:45:30;12.50;99.90
4697;DHT22;2362;50.780;0.292;2023-11-19T01:48:02;12.40;99.90
4697;DHT22;2362;50.780;0.292;2023-11-19T01:50:32;12.40;99.90
4697;DHT22;2362;50.780;0.292;2023-11-19T01:52:58;12.30;99.90
4697;DHT22;2362;50.780;0.292;2023-11-19T01:55:26;12.40;99.90
4697;DHT22;2362;50.780;0.292;2023-11-19T01:57:57;12.30;99.90
4697;DHT22;2362;50.780;0.292;2023-11-19T02:00:24;12.20;99.90
4697;DHT22;2362;50.780;0.292;2023-11-19T02:02:52;12.30;99.90
4697;DHT22;2362;50.780;0.292;2023-11-19T02:05:18;12.20;99.90
4697;DHT22;2362;50.780;0.292;2023-11-19T02:07:43;12.20;99.90
4697;DHT22;2362;50.780;0.292;2023-11-19T02:10:10;12.20;99.90
4697;DHT22;2362;50.780;0.292;2023-11-19T02:12:42;12.20;99.90
4697;DHT22;2362;50.780;0.292;2023-11-19T02:15:09;12.20;99.90
4697;DHT22;2362;50.780;0.292;2023-11-19T02:17:35;12.20;99.90
4697;DHT22;2362;50.780;0.292;2023-11-19T02:20:03;12.30;99.90
4697;DHT22;2362;50.780;0.292;2023-11-19T02:22:32;12.30;99.90
4697;DHT22;2362;50.780;0.292;2023-11-19T02:25:04;12.20;99.90
4697;DHT22;2362;50.780;0.292;2023-11-19T02:27:51;12.20;99.90
4697;DHT22;2362;50.780;0.292;2023-11-19T02:30:21;12.20;99.90
4697;DHT22;2362;50.780;0.292;2023-11-19T02:32:55;12.20;99.90
4697;DHT22;2362;50.780;0.292;2023-11-19T02:35:26;12.20;99.90
4697;DHT22;2362;50.780;0.292;2023-11-19T02:37:52;12.30;99.90
4697;DHT22;2362;50.780;0.292;2023-11-19T02:40:17;12.30;99.90
4697;DHT22;2362;50.780;0.292;2023-11-19T02:42:43;12.30;99.90
4697;DHT22;2362;50.780;0.292;2023-11-19T02:45:09;12.30;99.90
4697;DHT22;2362;50.780;0.292;2023-11-19T02:47:43;12.40;99.90
4697;DHT22;2362;50.780;0.292;2023-11-19T02:50:12;12.40;99.90
4697;DHT22;2362;50.780;0.292;2023-11-19T02:52:41;12.50;99.90
4697;DHT22;2362;50.780;0.292;2023-11-19T02:55:08;12.50;99.90
4697;DHT22;2362;50.780;0.292;2023-11-19T02:57:42;12.50;99.90
4697;DHT22;2362;50.780;0.292;2023-11-19T03:00:18;12.50;99.90
4697;DHT22;2362;50.780;0.292;2023-11-19T03:02:44;12.50;99.90
4697;DHT22;2362;50.780;0.292;2023-11-19T03:05:19;12.50;99.90
4697;DHT22;2362;50.780;0.292;2023-11-19T03:07:45;12.50;99.90
4697;DHT22;2362;50.780;0.292;2023-11-19T03:10:11;12.40;99.90
4697;DHT22;2362;50.780;0.292;2023-11-19T03:12:41;12.40;99.90
4697;DHT22;2362;50.780;0.292;2023-11-19T03:15:07;12.40;99.90
4697;DHT22;2362;50.780;0.292;2023-11-19T03:17:41;12.40;99.90
4697;DHT22;2362;50.780;0.292;2023-11-19T03:20:10;12.40;99.90
4697;DHT22;2362;50.780;0.292;2023-11-19T03:22:39;12.40;99.90
4697;DHT22;2362;50.780;0.292;2023-11-19T03:25:07;12.40;99.90
4697;DHT22;2362;50.780;0.292;2023-11-19T03:27:37;12.40;99.90
4697;DHT22;2362;50.780;0.292;2023-11-19T03:30:08;12.40;99.90
4697;DHT22;2362;50.780;0.292;2023-11-19T03:32:37;12.40;99.90
4697;DHT22;2362;50.780;0.292;2023-11-19T03:35:05;12.40;99.90
4697;DHT22;2362;50.780;0.292;2023-11-19T03:37:33;12.40;99.90
4697;DHT22;2362;50.780;0.292;2023-11-19T03:39:59;12.50;99.90
4697;DHT22;2362;50.780;0.292;2023-11-19T03:42:29;12.40;99.90
4697;DHT22;2362;50.780;0.292;2023-11-19T03:44:57;12.40;99.90
4697;DHT22;2362;50.780;0.292;2023-11-19T03:47:23;12.40;99.90
4697;DHT22;2362;50.780;0.292;2023-11-19T03:49:49;12.30;99.90
4697;DHT22;2362;50.780;0.292;2023-11-19T03:52:16;12.30;99.90
4697;DHT22;2362;50.780;0.292;2023-11-19T03:54:42;12.20;99.90
4697;DHT22;2362;50.780;0.292;2023-11-19T03:57:07;12.20;99.90
4697;DHT22;2362;50.780;0.292;2023-11-19T03:59:35;12.20;99.90
4697;DHT22;2362;50.780;0.292;2023-11-19T04:02:02;12.30;99.90
4697;DHT22;2362;50.780;0.292;2023-11-19T04:04:28;12.30;99.90
4697;DHT22;2362;50.780;0.292;2023-11-19T04:06:55;12.40;99.90
4697;DHT22;2362;50.780;0.292;2023-11-19T04:09:21;12.40;99.90
4697;DHT22;2362;50.780;0.292;2023-11-19T04:11:46;12.40;99.90
4697;DHT22;2362;50.780;0.292;2023-11-19T04:14:13;12.40;99.90
4697;DHT22;2362;50.780;0.292;2023-11-19T04:16:39;12.50;99.90
4697;DHT22;2362;50.780;0.292;2023-11-19T04:19:05;12.60;99.90
4697;DHT22;2362;50.780;0.292;2023-11-19T04:21:32;12.60;99.90
4697;DHT22;2362;50.780;0.292;2023-11-19T04:23:58;12.60;99.90
4697;DHT22;2362;50.780;0.292;2023-11-19T04:26:23;12.50;99.90
4697;DHT22;2362;50.780;0.292;2023-11-19T04:28:49;12.50;99.90
4697;DHT22;2362;50.780;0.292;2023-11-19T04:31:15;12.60;99.90
4697;DHT22;2362;50.780;0.292;2023-11-19T04:33:42;12.70;99.90
4697;DHT22;2362;50.780;0.292;2023-11-19T04:36:08;12.70;99.90
4697;DHT22;2362;50.780;0.292;2023-11-19T04:38:34;12.70;99.90
4697;DHT22;2362;50.780;0.292;2023-11-19T04:41:00;12.80;99.90
4697;DHT22;2362;50.780;0.292;2023-11-19T04:43:26;12.80;99.90
4697;DHT22;2362;50.780;0.292;2023-11-19T04:45:51;12.80;99.90
4697;DHT22;2362;50.780;0.292;2023-11-19T04:48:17;12.80;99.90
4697;DHT22;2362;50.780;0.292;2023-11-19T04:50:43;12.80;99.90
4697;DHT22;2362;50.780;0.292;2023-11-19T04:53:08;12.80;99.90
4697;DHT22;2362;50.780;0.292;2023-11-19T04:55:34;12.70;99.90
4697;DHT22;2362;50.780;0.292;2023-11-19T04:58:00;12.80;99.90
4697;DHT22;2362;50.780;0.292;2023-11-19T05:00:25;12.70;99.90
4697;DHT22;2362;50.780;0.292;2023-11-19T05:02:51;12.80;99.90
4697;DHT22;2362;50.780;0.292;2023-11-19T05:05:17;12.80;99.90
4697;DHT22;2362;50.780;0.292;2023-11-19T05:07:43;12.80;99.90
4697;DHT22;2362;50.780;0.292;2023-11-19T05:10:09;12.80;99.90
4697;DHT22;2362;50.780;0.292;2023-11-19T05:12:35;12.80;99.90
4697;DHT22;2362;50.780;0.292;2023-11-19T05:15:00;12.80;99.90
4697;DHT22;2362;50.780;0.292;2023-11-19T05:17:26;12.80;99.90
4697;DHT22;2362;50.780;0.292;2023-11-19T05:19:52;12.70;99.90
4697;DHT22;2362;50.780;0.292;2023-11-19T05:22:18;12.60;99.90
4697;DHT22;2362;50.780;0.292;2023-11-19T05:24:43;12.60;99.90
4697;DHT22;2362;50.780;0.292;2023-11-19T05:27:09;12.60;99.90
4697;DHT22;2362;50.780;0.292;2023-11-19T05:29:37;12.60;99.90
4697;DHT22;2362;50.780;0.292;2023-11-19T05:32:05;12.60;99.90
4697;DHT22;2362;50.780;0.292;2023-11-19T05:34:30;12.60;99.90
4697;DHT22;2362;50.780;0.292;2023-11-19T05:36:56;12.50;99.90
4697;DHT22;2362;50.780;0.292;2023-11-19T05:39:22;12.50;99.90
4697;DHT22;2362;50.780;0.292;2023-11-19T05:41:48;12.40;99.90
4697;DHT22;2362;50.780;0.292;2023-11-19T05:44:14;12.40;99.90
4697;DHT22;2362;50.780;0.292;2023-11-19T05:46:39;12.40;99.90
4697;DHT22;2362;50.780;0.292;2023-11-19T05:49:08;12.40;99.90
4697;DHT22;2362;50.780;0.292;2023-11-19T05:51:41;12.50;99.90
4697;DHT22;2362;50.780;0.292;2023-11-19T05:54:10;12.50;99.90
4697;DHT22;2362;50.780;0.292;2023-11-19T05:56:36;12.50;99.90
4697;DHT22;2362;50.780;0.292;2023-11-19T05:59:02;12.50;99.90
4697;DHT22;2362;50.780;0.292;2023-11-19T06:01:39;12.60;99.90
4697;DHT22;2362;50.780;0.292;2023-11-19T06:04:07;12.70;99.90
4697;DHT22;2362;50.780;0.292;2023-11-19T06:06:32;12.70;99.90
4697;DHT22;2362;50.780;0.292;2023-11-19T06:08:58;12.80;99.90
4697;DHT22;2362;50.780;0.292;2023-11-19T06:11:24;12.80;99.90
4697;DHT22;2362;50.780;0.292;2023-11-19T06:13:52;12.80;99.90
4697;DHT22;2362;50.780;0.292;2023-11-19T06:16:18;12.80;99.90
4697;DHT22;2362;50.780;0.292;2023-11-19T06:18:44;12.80;99.90
4697;DHT22;2362;50.780;0.292;2023-11-19T06:21:10;12.80;99.90
4697;DHT22;2362;50.780;0.292;2023-11-19T06:23:36;12.80;99.90
4697;DHT22;2362;50.780;0.292;2023-11-19T06:26:01;12.80;99.90
4697;DHT22;2362;50.780;0.292;2023-11-19T06:28:27;12.70;99.90
4697;DHT22;2362;50.780;0.292;2023-11-19T06:30:53;12.70;99.90
4697;DHT22;2362;50.780;0.292;2023-11-19T06:33:18;12.70;99.90
4697;DHT22;2362;50.780;0.292;2023-11-19T06:35:44;12.70;99.90
4697;DHT22;2362;50.780;0.292;2023-11-19T06:38:10;12.70;99.90
4697;DHT22;2362;50.780;0.292;2023-11-19T06:40:36;12.80;99.90
4697;DHT22;2362;50.780;0.292;2023-11-19T06:43:02;12.80;99.90
4697;DHT22;2362;50.780;0.292;2023-11-19T06:45:30;12.90;99.90
4697;DHT22;2362;50.780;0.292;2023-11-19T06:47:56;12.90;99.90
4697;DHT22;2362;50.780;0.292;2023-11-19T06:50:21;12.90;99.90
4697;DHT22;2362;50.780;0.292;2023-11-19T06:52:47;12.90;99.90
4697;DHT22;2362;50.780;0.292;2023-11-19T06:55:13;12.90;99.90
4697;DHT22;2362;50.780;0.292;2023-11-19T06:57:38;12.80;99.90
4697;DHT22;2362;50.780;0.292;2023-11-19T07:00:05;12.80;99.90
4697;DHT22;2362;50.780;0.292;2023-11-19T07:02:31;12.80;99.90
4697;DHT22;2362;50.780;0.292;2023-11-19T07:04:57;12.80;99.90
4697;DHT22;2362;50.780;0.292;2023-11-19T07:07:23;12.90;99.90
4697;DHT22;2362;50.780;0.292;2023-11-19T07:09:48;12.90;99.90
4697;DHT22;2362;50.780;0.292;2023-11-19T07:12:14;12.80;99.90
4697;DHT22;2362;50.780;0.292;2023-11-19T07:14:40;12.80;99.90
4697;DHT22;2362;50.780;0.292;2023-11-19T07:17:08;12.80;99.90
4697;DHT22;2362;50.780;0.292;2023-11-19T07:19:34;12.70;99.90
4697;DHT22;2362;50.780;0.292;2023-11-19T07:22:02;12.60;99.90
4697;DHT22;2362;50.780;0.292;2023-11-19T07:24:27;12.60;99.90
4697;DHT22;2362;50.780;0.292;2023-11-19T07:26:54;12.60;99.90
4697;DHT22;2362;50.780;0.292;2023-11-19T07:29:20;12.60;99.90
4697;DHT22;2362;50.780;0.292;2023-11-19T07:31:48;12.60;99.90
4697;DHT22;2362;50.780;0.292;2023-11-19T07:34:14;12.60;99.90
4697;DHT22;2362;50.780;0.292;2023-11-19T07:36:40;12.60;99.90
4697;DHT22;2362;50.780;0.292;2023-11-19T07:39:06;12.60;99.90
4697;DHT22;2362;50.780;0.292;2023-11-19T07:41:33;12.60;99.90
4697;DHT22;2362;50.780;0.292;2023-11-19T07:44:00;12.50;99.90
4697;DHT22;2362;50.780;0.292;2023-11-19T07:46:26;12.60;99.90
4697;DHT22;2362;50.780;0.292;2023-11-19T07:48:52;12.60;99.90
4697;DHT22;2362;50.780;0.292;2023-11-19T07:51:18;12.60;99.90
4697;DHT22;2362;50.780;0.292;2023-11-19T07:53:44;12.60;99.90
4697;DHT22;2362;50.780;0.292;2023-11-19T07:56:10;12.60;99.90
4697;DHT22;2362;50.780;0.292;2023-11-19T07:58:36;12.60;99.90
4697;DHT22;2362;50.780;0.292;2023-11-19T08:01:02;12.50;99.90
4697;DHT22;2362;50.780;0.292;2023-11-19T08:03:28;12.50;99.90
4697;DHT22;2362;50.780;0.292;2023-11-19T08:05:57;12.50;99.90
4697;DHT22;2362;50.780;0.292;2023-11-19T08:08:24;12.60;99.90
4697;DHT22;2362;50.780;0.292;2023-11-19T08:10:50;12.60;99.90
4697;DHT22;2362;50.780;0.292;2023-11-19T08:13:18;12.50;99.90
4697;DHT22;2362;50.780;0.292;2023-11-19T08:15:43;12.60;99.90
4697;DHT22;2362;50.780;0.292;2023-11-19T08:18:09;12.60;99.90
4697;DHT22;2362;50.780;0.292;2023-11-19T08:20:35;12.70;99.90
4697;DHT22;2362;50.780;0.292;2023-11-19T08:23:02;12.60;99.90
4697;DHT22;2362;50.780;0.292;2023-11-19T08:25:29;12.60;99.90
4697;DHT22;2362;50.780;0.292;2023-11-19T08:27:54;12.70;99.90
4697;DHT22;2362;50.780;0.292;2023-11-19T08:30:20;12.80;99.90
4697;DHT22;2362;50.780;0.292;2023-11-19T08:32:46;12.90;99.90
4697;DHT22;2362;50.780;0.292;2023-11-19T08:35:11;12.90;99.90
4697;DHT22;2362;50.780;0.292;2023-11-19T08:37:37;12.90;99.90
4697;DHT22;2362;50.780;0.292;2023-11-19T08:40:04;12.90;99.90
4697;DHT22;2362;50.780;0.292;2023-11-19T08:42:30;12.80;99.90
4697;DHT22;2362;50.780;0.292;2023-11-19T08:44:56;12.90;99.90
4697;DHT22;2362;50.780;0.292;2023-11-19T08:47:22;12.80;99.90
4697;DHT22;2362;50.780;0.292;2023-11-19T08:49:51;12.50;99.90
4697;DHT22;2362;50.780;0.292;2023-11-19T08:52:17;12.30;99.90
4697;DHT22;2362;50.780;0.292;2023-11-19T08:54:43;12.10;99.90
4697;DHT22;2362;50.780;0.292;2023-11-19T08:57:09;12.10;99.90
4697;DHT22;2362;50.780;0.292;2023-11-19T08:59:35;12.10;99.90
4697;DHT22;2362;50.780;0.292;2023-11-19T09:02:03;12.20;99.90
4697;DHT22;2362;50.780;0.292;2023-11-19T09:04:29;12.20;99.90
4697;DHT22;2362;50.780;0.292;2023-11-19T09:06:57;12.30;99.90
4697;DHT22;2362;50.780;0.292;2023-11-19T09:09:22;12.40;99.90
4697;DHT22;2362;50.780;0.292;2023-11-19T09:11:48;12.60;99.90
4697;DHT22;2362;50.780;0.292;2023-11-19T09:14:13;12.70;99.90
4697;DHT22;2362;50.780;0.292;2023-11-19T09:16:39;12.80;99.90
4697;DHT22;2362;50.780;0.292;2023-11-19T09:19:05;12.90;99.90
4697;DHT22;2362;50.780;0.292;2023-11-19T09:21:30;12.90;99.90
4697;DHT22;2362;50.780;0.292;2023-11-19T09:23:56;12.90;99.90
4697;DHT22;2362;50.780;0.292;2023-11-19T09:26:21;12.80;99.90
4697;DHT22;2362;50.780;0.292;2023-11-19T09:28:47;12.80;99.90
4697;DHT22;2362;50.780;0.292;2023-11-19T09:31:16;12.90;99.90
4697;DHT22;2362;50.780;0.292;2023-11-19T09:33:43;12.90;99.90
4697;DHT22;2362;50.780;0.292;2023-11-19T09:36:09;13.00;99.90
4697;DHT22;2362;50.780;0.292;2023-11-19T09:38:37;12.90;99.90
4697;DHT22;2362;50.780;0.292;2023-11-19T09:41:05;12.80;99.90
4697;DHT22;2362;50.780;0.292;2023-11-19T09:43:34;12.80;99.90
4697;DHT22;2362;50.780;0.292;2023-11-19T09:46:04;12.80;99.90
4697;DHT22;2362;50.780;0.292;2023-11-19T09:48:33;12.90;99.90
4697;DHT22;2362;50.780;0.292;2023-11-19T09:51:01;13.10;99.90
4697;DHT22;2362;50.780;0.292;2023-11-19T09:53:27;13.10;99.90
4697;DHT22;2362;50.780;0.292;2023-11-19T09:55:53;13.10;99.90
4697;DHT22;2362;50.780;0.292;2023-11-19T09:58:20;13.00;99.90
4697;DHT22;2362;50.780;0.292;2023-11-19T10:00:47;13.10;99.90
4697;DHT22;2362;50.780;0.292;2023-11-19T10:03:14;13.00;99.90
4697;DHT22;2362;50.780;0.292;2023-11-19T10:05:39;12.90;99.90
4697;DHT22;2362;50.780;0.292;2023-11-19T10:08:06;12.80;99.90
4697;DHT22;2362;50.780;0.292;2023-11-19T10:10:32;12.70;99.90
4697;DHT22;2362;50.780;0.292;2023-11-19T10:12:58;12.70;99.90
4697;DHT22;2362;50.780;0.292;2023-11-19T10:15:24;12.80;99.90
4697;DHT22;2362;50.780;0.292;2023-11-19T10:17:56;12.90;99.90
4697;DHT22;2362;50.780;0.292;2023-11-19T10:20:21;13.20;99.90
4697;DHT22;2362;50.780;0.292;2023-11-19T10:22:47;13.30;99.90
4697;DHT22;2362;50.780;0.292;2023-11-19T10:25:26;13.30;99.90
4697;DHT22;2362;50.780;0.292;2023-11-19T10:27:54;13.40;99.90
4697;DHT22;2362;50.780;0.292;2023-11-19T10:30:30;13.50;99.90
4697;DHT22;2362;50.780;0.292;2023-11-19T10:35:27;13.60;99.90
4697;DHT22;2362;50.780;0.292;2023-11-19T10:37:53;13.60;99.90
4697;DHT22;2362;50.780;0.292;2023-11-19T10:40:19;13.60;99.90
4697;DHT22;2362;50.780;0.292;2023-11-19T10:42:44;13.50;99.90
4697;DHT22;2362;50.780;0.292;2023-11-19T10:45:22;13.50;99.90
4697;DHT22;2362;50.780;0.292;2023-11-19T10:47:51;13.50;99.90
4697;DHT22;2362;50.780;0.292;2023-11-19T10:50:17;13.60;99.90
4697;DHT22;2362;50.780;0.292;2023-11-19T10:52:43;13.60;99.90
4697;DHT22;2362;50.780;0.292;2023-11-19T10:55:11;13.60;99.90
4697;DHT22;2362;50.780;0.292;2023-11-19T10:57:43;13.60;99.90
4697;DHT22;2362;50.780;0.292;2023-11-19T11:00:13;13.60;99.90
4697;DHT22;2362;50.780;0.292;2023-11-19T11:02:45;13.60;99.90
4697;DHT22;2362;50.780;0.292;2023-11-19T11:05:16;13.60;99.90
4697;DHT22;2362;50.780;0.292;2023-11-19T11:07:44;13.50;99.90
4697;DHT22;2362;50.780;0.292;2023-11-19T11:10:11;13.50;99.90
4697;DHT22;2362;50.780;0.292;2023-11-19T11:12:40;13.50;99.90
4697;DHT22;2362;50.780;0.292;2023-11-19T11:15:08;13.50;99.90
4697;DHT22;2362;50.780;0.292;2023-11-19T11:17:39;13.50;99.90
4697;DHT22;2362;50.780;0.292;2023-11-19T11:20:05;13.50;99.90
4697;DHT22;2362;50.780;0.292;2023-11-19T11:23:01;13.50;99.90
4697;DHT22;2362;50.780;0.292;2023-11-19T11:25:41;13.50;99.90
4697;DHT22;2362;50.780;0.292;2023-11-19T11:28:20;13.60;99.90
4697;DHT22;2362;50.780;0.292;2023-11-19T11:36:10;13.70;99.90
4697;DHT22;2362;50.780;0.292;2023-11-19T11:38:40;13.80;99.90
4697;DHT22;2362;50.780;0.292;2023-11-19T11:41:23;13.90;99.90
4697;DHT22;2362;50.780;0.292;2023-11-19T11:43:52;14.10;99.90
4697;DHT22;2362;50.780;0.292;2023-11-19T11:49:04;14.10;99.90
4697;DHT22;2362;50.780;0.292;2023-11-19T11:54:14;14.00;99.90
4697;DHT22;2362;50.780;0.292;2023-11-19T11:57:12;13.90;99.90
4697;DHT22;2362;50.780;0.292;2023-11-19T11:59:48;13.50;99.90
4697;DHT22;2362;50.780;0.292;2023-11-19T12:02:19;13.30;99.90
4697;DHT22;2362;50.780;0.292;2023-11-19T12:04:51;13.10;99.90
4697;DHT22;2362;50.780;0.292;2023-11-19T12:07:24;13.00;99.90
4697;DHT22;2362;50.780;0.292;2023-11-19T12:10:05;12.80;99.90
4697;DHT22;2362;50.780;0.292;2023-11-19T12:12:33;12.90;99.90
4697;DHT22;2362;50.780;0.292;2023-11-19T12:20:06;13.10;99.90
4697;DHT22;2362;50.780;0.292;2023-11-19T12:22:37;13.10;99.90
4697;DHT22;2362;50.780;0.292;2023-11-19T12:25:05;13.30;99.90
4697;DHT22;2362;50.780;0.292;2023-11-19T12:27:32;13.40;99.90
4697;DHT22;2362;50.780;0.292;2023-11-19T12:29:59;13.40;99.90
4697;DHT22;2362;50.780;0.292;2023-11-19T12:32:25;13.50;99.90
4697;DHT22;2362;50.780;0.292;2023-11-19T12:34:50;13.50;99.90
4697;DHT22;2362;50.780;0.292;2023-11-19T12:37:16;13.60;99.90
4697;DHT22;2362;50.780;0.292;2023-11-19T12:39:42;13.60;99.90
4697;DHT22;2362;50.780;0.292;2023-11-19T12:42:08;13.50;99.90
4697;DHT22;2362;50.780;0.292;2023-11-19T12:44:35;13.30;99.90
4697;DHT22;2362;50.780;0.292;2023-11-19T12:47:05;13.20;99.90
4697;DHT22;2362;50.780;0.292;2023-11-19T12:49:32;13.10;99.90
4697;DHT22;2362;50.780;0.292;2023-11-19T12:51:58;13.10;99.90
4697;DHT22;2362;50.780;0.292;2023-11-19T12:54:35;13.10;99.90
4697;DHT22;2362;50.780;0.292;2023-11-19T12:57:01;13.10;99.90
4697;DHT22;2362;50.780;0.292;2023-11-19T12:59:27;13.10;99.90
4697;DHT22;2362;50.780;0.292;2023-11-19T13:01:59;13.20;99.90
4697;DHT22;2362;50.780;0.292;2023-11-19T13:04:29;13.30;99.90
4697;DHT22;2362;50.780;0.292;2023-11-19T13:06:58;13.30;99.90
4697;DHT22;2362;50.780;0.292;2023-11-19T13:09:25;13.40;99.90
4697;DHT22;2362;50.780;0.292;2023-11-19T13:11:51;13.40;99.90
4697;DHT22;2362;50.780;0.292;2023-11-19T13:14:18;13.40;99.90
4697;DHT22;2362;50.780;0.292;2023-11-19T13:16:44;13.50;99.90
4697;DHT22;2362;50.780;0.292;2023-11-19T13:19:14;13.50;99.90
4697;DHT22;2362;50.780;0.292;2023-11-19T13:21:41;13.50;99.90
4697;DHT22;2362;50.780;0.292;2023-11-19T13:24:07;13.50;99.90
4697;DHT22;2362;50.780;0.292;2023-11-19T13:26:34;13.60;99.90
4697;DHT22;2362;50.780;0.292;2023-11-19T13:29:03;13.60;99.90
4697;DHT22;2362;50.780;0.292;2023-11-19T13:31:29;13.60;99.90
4697;DHT22;2362;50.780;0.292;2023-11-19T13:33:55;13.60;99.90
4697;DHT22;2362;50.780;0.292;2023-11-19T13:36:22;13.60;99.90
4697;DHT22;2362;50.780;0.292;2023-11-19T13:38:47;13.60;99.90
4697;DHT22;2362;50.780;0.292;2023-11-19T13:41:13;13.60;99.90
4697;DHT22;2362;50.780;0.292;2023-11-19T13:43:39;13.60;99.90
4697;DHT22;2362;50.780;0.292;2023-11-19T13:46:06;13.60;99.90
4697;DHT22;2362;50.780;0.292;2023-11-19T13:48:34;13.60;99.90
4697;DHT22;2362;50.780;0.292;2023-11-19T13:51:00;13.60;99.90
4697;DHT22;2362;50.780;0.292;2023-11-19T13:53:26;13.60;99.90
4697;DHT22;2362;50.780;0.292;2023-11-19T13:55:52;13.50;99.90
4697;DHT22;2362;50.780;0.292;2023-11-19T13:58:18;13.50;99.90
4697;DHT22;2362;50.780;0.292;2023-11-19T14:00:44;13.50;99.90
4697;DHT22;2362;50.780;0.292;2023-11-19T14:03:10;13.50;99.90
4697;DHT22;2362;50.780;0.292;2023-11-19T14:05:38;13.50;99.90
4697;DHT22;2362;50.780;0.292;2023-11-19T14:08:05;13.40;99.90
4697;DHT22;2362;50.780;0.292;2023-11-19T14:10:37;13.40;99.90
4697;DHT22;2362;50.780;0.292;2023-11-19T14:13:04;13.40;99.90
4697;DHT22;2362;50.780;0.292;2023-11-19T14:15:31;13.40;99.90
4697;DHT22;2362;50.780;0.292;2023-11-19T14:17:56;13.40;99.90
4697;DHT22;2362;50.780;0.292;2023-11-19T14:20:22;13.30;99.90
4697;DHT22;2362;50.780;0.292;2023-11-19T14:22:47;13.30;99.90
4697;DHT22;2362;50.780;0.292;2023-11-19T14:25:14;13.30;99.90
4697;DHT22;2362;50.780;0.292;2023-11-19T14:27:42;13.20;99.90
4697;DHT22;2362;50.780;0.292;2023-11-19T14:30:10;13.10;99.90
4697;DHT22;2362;50.780;0.292;2023-11-19T14:32:40;13.20;99.90
4697;DHT22;2362;50.780;0.292;2023-11-19T14:35:08;13.20;99.90
4697;DHT22;2362;50.780;0.292;2023-11-19T14:37:34;13.20;99.90
4697;DHT22;2362;50.780;0.292;2023-11-19T14:40:00;13.30;99.90
4697;DHT22;2362;50.780;0.292;2023-11-19T14:42:27;13.30;99.90
4697;DHT22;2362;50.780;0.292;2023-11-19T14:44:53;13.30;99.90
4697;DHT22;2362;50.780;0.292;2023-11-19T14:47:20;13.30;99.90
4697;DHT22;2362;50.780;0.292;2023-11-19T14:49:45;13.30;99.90
4697;DHT22;2362;50.780;0.292;2023-11-19T14:52:11;13.20;99.90
4697;DHT22;2362;50.780;0.292;2023-11-19T14:54:37;13.10;99.90
4697;DHT22;2362;50.780;0.292;2023-11-19T14:57:06;13.10;99.90
4697;DHT22;2362;50.780;0.292;2023-11-19T14:59:36;13.10;99.90
4697;DHT22;2362;50.780;0.292;2023-11-19T15:02:02;13.10;99.90
4697;DHT22;2362;50.780;0.292;2023-11-19T15:04:28;13.20;99.90
4697;DHT22;2362;50.780;0.292;2023-11-19T15:06:56;13.10;99.90
4697;DHT22;2362;50.780;0.292;2023-11-19T15:09:22;13.10;99.90
4697;DHT22;2362;50.780;0.292;2023-11-19T15:11:47;13.10;99.90
4697;DHT22;2362;50.780;0.292;2023-11-19T15:14:13;13.00;99.90
4697;DHT22;2362;50.780;0.292;2023-11-19T15:16:44;12.80;99.90
4697;DHT22;2362;50.780;0.292;2023-11-19T15:19:10;12.70;99.90
4697;DHT22;2362;50.780;0.292;2023-11-19T15:21:38;12.70;99.90
4697;DHT22;2362;50.780;0.292;2023-11-19T15:24:04;12.60;99.90
4697;DHT22;2362;50.780;0.292;2023-11-19T15:26:35;12.60;99.90
4697;DHT22;2362;50.780;0.292;2023-11-19T15:29:02;12.60;99.90
4697;DHT22;2362;50.780;0.292;2023-11-19T15:31:28;12.60;99.90
4697;DHT22;2362;50.780;0.292;2023-11-19T15:33:54;12.60;99.90
4697;DHT22;2362;50.780;0.292;2023-11-19T15:36:20;12.60;99.90
4697;DHT22;2362;50.780;0.292;2023-11-19T15:38:47;12.60;99.90
4697;DHT22;2362;50.780;0.292;2023-11-19T15:41:12;12.60;99.90
4697;DHT22;2362;50.780;0.292;2023-11-19T15:43:38;12.60;99.90
4697;DHT22;2362;50.780;0.292;2023-11-19T15:46:10;12.60;99.90
4697;DHT22;2362;50.780;0.292;2023-11-19T15:48:39;12.60;99.90
4697;DHT22;2362;50.780;0.292;2023-11-19T15:51:05;12.60;99.90
4697;DHT22;2362;50.780;0.292;2023-11-19T15:53:30;12.60;99.90
4697;DHT22;2362;50.780;0.292;2023-11-19T15:55:57;12.60;99.90
4697;DHT22;2362;50.780;0.292;2023-11-19T15:58:23;12.60;99.90
4697;DHT22;2362;50.780;0.292;2023-11-19T16:00:49;12.60;99.90
4697;DHT22;2362;50.780;0.292;2023-11-19T16:03:14;12.60;99.90
4697;DHT22;2362;50.780;0.292;2023-11-19T16:05:40;12.70;99.90
4697;DHT22;2362;50.780;0.292;2023-11-19T16:08:06;12.70;99.90
4697;DHT22;2362;50.780;0.292;2023-11-19T16:10:33;12.70;99.90
4697;DHT22;2362;50.780;0.292;2023-11-19T16:12:59;12.70;99.90
4697;DHT22;2362;50.780;0.292;2023-11-19T16:15:25;12.70;99.90
4697;DHT22;2362;50.780;0.292;2023-11-19T16:17:50;12.70;99.90
4697;DHT22;2362;50.780;0.292;2023-11-19T16:20:16;12.80;99.90